Time;durP1;ratioP1;P1;durP2;ratioP2;P2;SDS_P1;SDS_P2;PMS_P1;PMS_P2;Temp;Humidity;BMP_temperature;BMP_pressure;BME280_temperature;BME280_humidity;BME280_pressure;Samples;Min_cycle;Max_cycle;Signal;HPM_P1;HPM_P2
2022/02/06 00:00:17;;;;;;;3.13;1.50;;;17.50;52.80;;;;;;5052537;28;20179;-60
2022/02/06 00:02:45;;;;;;;2.97;1.58;;;17.50;52.80;;;;;;5051944;28;20278;-59
2022/02/06 00:05:12;;;;;;;3.30;1.50;;;17.50;52.80;;;;;;5052392;28;20171;-60
2022/02/06 00:07:38;;;;;;;1.63;1.20;;;17.50;52.80;;;;;;5052617;28;20266;-61
2022/02/06 00:10:03;;;;;;;4.07;1.83;;;17.50;52.80;;;;;;5051653;28;20258;-61
2022/02/06 00:12:29;;;;;;;2.80;1.33;;;17.40;52.70;;;;;;5052342;28;20205;-62
2022/02/06 00:14:55;;;;;;;2.58;1.27;;;17.40;52.70;;;;;;5052094;28;20638;-61
2022/02/06 00:17:20;;;;;;;3.33;1.60;;;17.40;52.80;;;;;;5051923;28;20211;-61
2022/02/06 00:19:46;;;;;;;2.60;1.50;;;17.40;52.80;;;;;;5052384;28;20175;-61
2022/02/06 00:22:24;;;;;;;3.40;1.63;;;17.40;52.80;;;;;;5052093;28;20168;-61
2022/02/06 00:24:53;;;;;;;2.85;1.58;;;17.40;52.80;;;;;;5051559;28;20237;-60
2022/02/06 00:27:34;;;;;;;3.10;1.90;;;17.40;52.80;;;;;;5052508;28;20567;-60
2022/02/06 00:30:12;;;;;;;3.22;1.58;;;17.40;52.80;;;;;;5051899;28;20175;-60
2022/02/06 00:32:44;;;;;;;3.67;1.52;;;17.40;52.90;;;;;;5052225;28;20179;-60
2022/02/06 00:35:29;;;;;;;2.85;1.65;;;17.40;52.80;;;;;;5051838;28;20174;-60
2022/02/06 00:43:10;;;;;;;2.83;1.55;;;17.30;52.80;;;;;;5052012;28;20642;-60
2022/02/06 00:45:38;;;;;;;3.25;1.70;;;17.30;52.80;;;;;;5051317;28;20183;-61
2022/02/06 00:48:04;;;;;;;3.28;1.65;;;17.30;52.90;;;;;;5051836;28;20179;-61
2022/02/06 00:50:31;;;;;;;2.95;1.67;;;17.30;52.90;;;;;;5052166;28;20167;-61
2022/02/06 00:53:04;;;;;;;4.15;1.75;;;17.30;52.90;;;;;;5051005;28;20237;-61
2022/02/06 00:55:29;;;;;;;3.60;1.58;;;17.30;52.90;;;;;;5051877;28;20590;-61
2022/02/06 00:57:55;;;;;;;3.15;1.67;;;17.20;52.80;;;;;;5051586;28;20233;-61
2022/02/06 01:00:20;;;;;;;3.25;1.75;;;17.30;52.90;;;;;;5050615;28;20187;-60
2022/02/06 01:02:46;;;;;;;2.20;1.45;;;17.20;52.90;;;;;;5051795;28;20547;-60
2022/02/06 01:05:11;;;;;;;2.45;1.13;;;17.20;52.90;;;;;;5051281;28;20606;-63
2022/02/06 01:07:37;;;;;;;3.28;1.38;;;17.20;52.90;;;;;;5050966;28;20183;-62
2022/02/06 01:10:03;;;;;;;3.90;1.88;;;17.20;52.90;;;;;;5054523;28;20175;-61
2022/02/06 01:12:31;;;;;;;2.70;1.48;;;17.20;52.90;;;;;;5055136;28;20175;-62
2022/02/06 01:15:08;;;;;;;4.07;1.80;;;17.20;52.80;;;;;;5055414;28;20225;-62
2022/02/06 01:17:58;;;;;;;3.30;1.83;;;17.20;52.90;;;;;;5055726;28;20218;-61
2022/02/06 01:20:32;;;;;;;2.72;1.50;;;17.20;52.90;;;;;;5054412;28;20179;-60
2022/02/06 01:23:23;;;;;;;2.90;1.55;;;17.10;52.90;;;;;;5055104;28;20183;-60
2022/02/06 01:25:57;;;;;;;2.60;1.15;;;17.10;52.90;;;;;;5055173;28;20733;-60
2022/02/06 01:28:32;;;;;;;2.90;1.50;;;17.10;52.90;;;;;;5054713;28;20206;-59
2022/02/06 01:31:13;;;;;;;3.50;1.83;;;17.10;52.90;;;;;;5054970;28;20175;-60
2022/02/06 01:33:46;;;;;;;4.15;1.67;;;17.10;52.90;;;;;;5054429;28;20662;-60
2022/02/06 01:36:24;;;;;;;2.17;1.30;;;17.10;52.90;;;;;;5055108;28;20261;-60
2022/02/06 01:41:21;;;;;;;2.83;1.63;;;17.10;53.00;;;;;;5054184;28;20175;-60
2022/02/06 01:43:53;;;;;;;2.35;1.45;;;17.10;53.00;;;;;;5054977;28;20171;-60
2022/02/06 02:05:45;;;;;;;3.33;1.70;;;17.00;53.00;;;;;;5074354;28;20769;-60
2022/02/06 02:11:18;;;;;;;3.42;1.50;;;17.00;53.00;;;;;;5073883;28;20260;-61
2022/02/06 02:13:56;;;;;;;3.85;1.83;;;17.00;53.00;;;;;;5060484;28;20269;-62
2022/02/06 02:30:00;;;;;;;2.40;1.60;;;16.90;53.00;;;;;;5073951;28;20254;-61
2022/02/06 02:43:18;;;;;;;3.03;1.38;;;16.90;53.10;;;;;;5073922;28;20197;-60
2022/02/06 02:48:09;;;;;;;2.25;1.40;;;16.90;53.20;;;;;;5073590;28;20174;-61
2022/02/06 02:50:39;;;;;;;2.22;1.33;;;16.80;53.10;;;;;;5073658;28;20297;-61
2022/02/06 02:53:22;;;;;;;4.35;1.60;;;16.80;53.10;;;;;;5063753;28;20328;-61
2022/02/06 03:01:02;;;;;;;1.70;1.40;;;16.80;53.10;;;;;;5053442;28;20178;-60
2022/02/06 03:03:31;;;;;;;3.30;1.70;;;16.80;53.80;;;;;;5053597;28;20171;-60
2022/02/06 03:05:58;;;;;;;2.15;1.52;;;16.80;53.10;;;;;;5052677;28;20171;-60
2022/02/06 03:08:24;;;;;;;1.92;1.35;;;16.80;53.20;;;;;;5053562;28;20209;-60
2022/02/06 03:10:52;;;;;;;2.22;1.50;;;16.80;53.20;;;;;;5053519;28;20210;-61
2022/02/06 03:13:20;;;;;;;2.20;1.10;;;16.80;53.20;;;;;;5052684;28;20215;-62
2022/02/06 03:16:00;;;;;;;4.00;1.42;;;16.80;53.30;;;;;;5053061;28;20618;-61
2022/02/06 03:18:30;;;;;;;1.75;1.35;;;16.80;53.30;;;;;;5053555;28;20219;-61
2022/02/06 03:20:56;;;;;;;3.78;1.60;;;16.80;53.30;;;;;;5052392;28;20187;-60
2022/02/06 03:23:21;;;;;;;2.55;1.60;;;16.80;53.30;;;;;;5054210;28;20179;-60
2022/02/06 03:25:51;;;;;;;1.95;1.20;;;16.80;53.30;;;;;;5053950;28;20175;-60
2022/02/06 03:28:17;;;;;;;1.75;1.30;;;16.80;53.30;;;;;;5052829;28;20167;-60
2022/02/06 03:30:42;;;;;;;2.25;1.23;;;16.70;53.30;;;;;;5053779;28;20548;-60
2022/02/06 03:33:08;;;;;;;2.55;1.40;;;16.70;53.30;;;;;;5052495;28;20179;-59
2022/02/06 03:35:34;;;;;;;2.03;1.35;;;16.70;53.30;;;;;;5053880;28;20649;-60
2022/02/06 03:37:59;;;;;;;2.78;1.35;;;16.70;53.30;;;;;;5053465;28;20211;-60
2022/02/06 03:40:28;;;;;;;2.63;1.30;;;16.70;53.30;;;;;;5053045;28;20175;-60
2022/02/06 03:45:37;;;;;;;2.38;1.40;;;16.70;53.40;;;;;;5053681;28;20270;-60
2022/02/06 03:48:17;;;;;;;2.88;1.30;;;16.70;53.40;;;;;;5052720;28;20178;-60
2022/02/06 03:50:48;;;;;;;2.30;1.10;;;16.70;53.40;;;;;;5053738;28;20261;-63
2022/02/06 03:53:17;;;;;;;2.00;1.33;;;16.70;53.40;;;;;;5053014;28;20235;-61
2022/02/06 03:55:43;;;;;;;2.00;1.35;;;16.70;53.40;;;;;;5052953;28;20221;-60
2022/02/06 03:58:09;;;;;;;1.58;1.20;;;16.70;53.40;;;;;;5053163;28;20214;-61
2022/02/06 04:00:34;;;;;;;3.13;1.38;;;16.70;53.40;;;;;;5053369;28;20687;-59
2022/02/06 04:03:00;;;;;;;1.20;1.10;;;16.70;53.40;;;;;;5052472;28;20183;-60
2022/02/06 04:05:25;;;;;;;1.67;1.20;;;16.70;53.40;;;;;;5053260;28;20198;-60
2022/02/06 04:07:52;;;;;;;1.98;1.40;;;16.60;53.40;;;;;;5053078;28;20559;-60
2022/02/06 04:10:19;;;;;;;1.95;1.30;;;16.60;53.40;;;;;;5052499;28;20167;-61
2022/02/06 04:12:46;;;;;;;2.03;1.15;;;16.70;53.40;;;;;;5053276;28;20175;-61
2022/02/06 04:15:20;;;;;;;2.05;1.10;;;16.60;53.40;;;;;;5052905;28;20183;-61
2022/02/06 04:17:50;;;;;;;2.55;1.35;;;16.60;53.40;;;;;;5053020;28;20229;-61
2022/02/06 04:20:16;;;;;;;1.63;1.08;;;16.60;53.40;;;;;;5052576;28;20254;-60
2022/02/06 04:22:41;;;;;;;1.13;1.00;;;16.60;53.40;;;;;;5052450;28;20258;-60
2022/02/06 04:25:07;;;;;;;1.73;1.38;;;16.60;53.50;;;;;;5052720;28;20175;-60
2022/02/06 04:27:32;;;;;;;1.52;1.30;;;16.60;54.10;;;;;;5053003;28;20179;-60
2022/02/06 04:29:58;;;;;;;1.70;1.30;;;16.60;53.50;;;;;;5051864;28;20182;-60
2022/02/06 04:32:26;;;;;;;1.25;1.15;;;16.60;53.50;;;;;;5052874;28;20171;-60
2022/02/06 04:34:53;;;;;;;2.17;1.42;;;16.60;53.50;;;;;;5052685;28;20186;-59
2022/02/06 04:42:54;;;;;;;2.45;1.33;;;16.60;53.50;;;;;;5052434;28;20228;-60
2022/02/06 04:46:00;;;;;;;1.10;1.00;;;16.60;53.50;;;;;;5051751;28;20175;-60
2022/02/06 04:48:49;;;;;;;2.17;1.30;;;16.50;53.50;;;;;;5052258;28;20178;-60
2022/02/06 04:51:40;;;;;;;1.67;1.23;;;16.50;53.50;;;;;;5051576;28;20211;-60
2022/02/06 04:54:11;;;;;;;1.73;1.20;;;16.60;53.50;;;;;;5052366;28;20234;-61
2022/02/06 05:26:53;;;;;;;1.85;1.08;;;16.40;53.60;;;;;;5051690;28;20190;-61
2022/02/06 05:34:18;;;;;;;3.13;1.25;;;16.40;53.60;;;;;;5051694;28;20179;-59
2022/02/06 05:36:44;;;;;;;1.80;1.27;;;16.40;53.60;;;;;;5052209;28;20209;-59
2022/02/06 05:39:09;;;;;;;2.35;1.10;;;16.40;53.60;;;;;;5051954;28;20168;-60
2022/02/06 05:41:35;;;;;;;2.15;1.40;;;16.40;53.60;;;;;;5051351;28;20785;-60
2022/02/06 05:44:02;;;;;;;1.05;0.80;;;16.40;53.60;;;;;;5051844;28;20528;-60
2022/02/06 05:46:28;;;;;;;1.35;1.10;;;16.40;53.70;;;;;;5052404;28;20183;-60
2022/02/06 05:48:53;;;;;;;1.27;1.00;;;16.40;53.70;;;;;;5051145;28;20188;-60
2022/02/06 05:51:19;;;;;;;1.80;1.20;;;16.40;53.70;;;;;;5052195;28;20543;-60
2022/02/06 05:53:45;;;;;;;1.42;1.10;;;16.40;53.70;;;;;;5051182;28;20602;-60
2022/02/06 05:56:10;;;;;;;1.65;1.00;;;16.40;53.70;;;;;;5055032;28;20259;-61
2022/02/06 05:58:36;;;;;;;1.80;1.10;;;16.40;53.80;;;;;;5055504;28;20215;-60
2022/02/06 06:01:01;;;;;;;2.17;1.10;;;16.40;53.80;;;;;;5037019;28;20183;-60
2022/02/06 06:03:27;;;;;;;1.38;1.25;;;16.40;53.80;;;;;;5055771;28;20187;-60
2022/02/06 06:05:52;;;;;;;1.33;1.20;;;16.40;53.80;;;;;;5055230;28;20167;-60
2022/02/06 06:08:18;;;;;;;1.77;1.38;;;16.40;53.80;;;;;;5054700;28;20539;-60
2022/02/06 06:10:43;;;;;;;1.90;1.48;;;16.30;53.80;;;;;;5055347;28;20174;-61
2022/02/06 06:13:09;;;;;;;1.30;1.00;;;16.40;53.80;;;;;;5055013;28;20237;-61
2022/02/06 06:15:35;;;;;;;2.17;0.98;;;16.30;53.80;;;;;;5054782;28;20179;-61
2022/02/06 06:18:04;;;;;;;1.63;0.90;;;16.30;53.80;;;;;;5055162;28;20250;-61
2022/02/06 06:20:31;;;;;;;2.38;1.30;;;16.30;53.80;;;;;;5055169;28;20642;-60
2022/02/06 06:22:56;;;;;;;2.13;1.20;;;16.30;53.80;;;;;;5054238;28;20194;-60
2022/02/06 06:25:24;;;;;;;1.52;0.90;;;16.30;53.80;;;;;;5055078;28;20179;-60
2022/02/06 06:27:49;;;;;;;1.80;1.10;;;16.30;53.80;;;;;;5055329;28;20179;-60
2022/02/06 06:30:15;;;;;;;1.52;1.00;;;16.30;53.80;;;;;;5054399;28;20526;-60
2022/02/06 06:32:40;;;;;;;1.63;1.33;;;16.30;53.80;;;;;;5055243;28;20175;-60
2022/02/06 06:35:06;;;;;;;2.20;1.17;;;16.30;53.90;;;;;;5054769;28;20236;-60
2022/02/06 06:37:32;;;;;;;2.00;1.10;;;16.30;53.90;;;;;;5054362;28;20265;-60
2022/02/06 06:39:57;;;;;;;1.25;1.05;;;16.30;53.90;;;;;;5036594;28;20264;-60
2022/02/06 06:42:23;;;;;;;1.52;1.00;;;16.30;53.90;;;;;;5055089;28;20229;-59
2022/02/06 06:44:49;;;;;;;1.63;1.10;;;16.30;53.90;;;;;;5054343;28;20171;-60
2022/02/06 06:47:14;;;;;;;2.80;1.35;;;16.30;53.90;;;;;;5054548;28;20206;-60
2022/02/06 06:49:39;;;;;;;2.53;1.30;;;16.30;53.90;;;;;;5054720;28;20175;-60
2022/02/06 06:52:06;;;;;;;2.42;1.33;;;16.30;53.90;;;;;;5053391;28;20729;-58
2022/02/06 06:54:48;;;;;;;1.55;1.00;;;16.30;53.90;;;;;;5054562;28;20596;-60
2022/02/06 07:00:08;;;;;;;3.60;1.45;;;16.30;54.00;;;;;;5054685;28;20256;-60
2022/02/06 07:02:30;;;;;;;1.83;1.00;;;16.30;54.00;;;;;;5054304;28;20175;-59
2022/02/06 07:05:02;;;;;;;1.52;1.00;;;16.20;54.00;;;;;;5053292;28;20185;-60
2022/02/06 07:07:27;;;;;;;2.88;1.23;;;16.20;53.90;;;;;;5053427;28;20183;-60
2022/02/06 07:09:53;;;;;;;1.73;1.17;;;16.30;53.90;;;;;;5054157;28;20175;-60
2022/02/06 07:12:18;;;;;;;2.05;1.10;;;16.30;53.90;;;;;;5053633;28;20233;-61
2022/02/06 07:14:45;;;;;;;1.48;1.10;;;16.30;53.90;;;;;;5054338;28;20219;-61
2022/02/06 07:17:11;;;;;;;1.30;0.88;;;16.30;53.80;;;;;;5053886;28;20207;-61
2022/02/06 07:19:38;;;;;;;1.27;1.17;;;16.40;53.80;;;;;;5053210;28;20751;-60
2022/02/06 07:22:04;;;;;;;1.75;1.20;;;16.40;53.80;;;;;;5053737;28;20630;-60
2022/02/06 07:24:30;;;;;;;1.20;0.85;;;16.40;53.80;;;;;;5053975;28;20202;-60
2022/02/06 07:27:00;;;;;;;1.40;1.02;;;16.40;53.80;;;;;;5053096;28;20224;-60
2022/02/06 07:29:26;;;;;;;1.48;1.00;;;16.40;53.80;;;;;;5053950;28;20612;-60
2022/02/06 07:31:53;;;;;;;1.00;0.98;;;16.40;53.80;;;;;;5053825;28;20665;-60
2022/02/06 07:34:19;;;;;;;1.35;1.05;;;16.40;53.80;;;;;;5053368;28;20179;-59
2022/02/06 07:36:44;;;;;;;1.58;1.10;;;16.40;53.90;;;;;;5053888;28;20202;-59
2022/02/06 07:39:10;;;;;;;1.55;1.17;;;16.40;53.90;;;;;;5053389;28;20210;-60
2022/02/06 07:41:35;;;;;;;1.20;1.00;;;16.50;54.00;;;;;;5053206;28;20573;-60
2022/02/06 07:44:01;;;;;;;1.60;1.10;;;16.60;54.00;;;;;;5053493;28;20183;-60
2022/02/06 07:46:32;;;;;;;1.88;0.93;;;16.70;53.90;;;;;;5052870;28;20221;-60
2022/02/06 07:49:00;;;;;;;1.30;0.80;;;16.80;53.70;;;;;;5053523;28;20182;-60
2022/02/06 07:51:26;;;;;;;0.70;0.70;;;17.00;53.50;;;;;;5053646;28;20587;-60
2022/02/06 07:53:52;;;;;;;0.75;0.65;;;17.20;53.10;;;;;;5054664;28;20229;-61
2022/02/06 07:56:17;;;;;;;1.23;0.70;;;17.30;52.90;;;;;;5053326;28;20190;-60
2022/02/06 07:58:43;;;;;;;2.03;1.00;;;17.60;52.60;;;;;;5053362;28;20207;-60
2022/02/06 08:01:08;;;;;;;1.10;0.80;;;17.70;52.40;;;;;;5052323;28;20178;-60
2022/02/06 08:03:34;;;;;;;1.50;0.90;;;17.70;52.30;;;;;;5053272;28;20179;-60
2022/02/06 08:05:59;;;;;;;0.75;0.73;;;17.70;52.20;;;;;;5052938;28;20536;-60
2022/02/06 08:08:25;;;;;;;0.60;0.60;;;17.70;52.20;;;;;;5052501;28;20210;-60
2022/02/06 08:10:50;;;;;;;0.70;0.70;;;17.70;52.20;;;;;;5053287;28;20170;-61
2022/02/06 08:13:38;;;;;;;1.52;0.80;;;17.80;52.20;;;;;;5052892;28;20248;-62
2022/02/06 08:16:02;;;;;;;1.42;0.80;;;17.90;52.10;;;;;;5051857;28;20270;-65
2022/02/06 08:18:28;;;;;;;2.65;0.93;;;18.00;52.00;;;;;;5052429;28;20592;-68
2022/02/06 08:20:53;;;;;;;1.75;0.70;;;18.00;52.10;;;;;;5052078;28;20171;-68
2022/02/06 08:23:19;;;;;;;2.30;0.80;;;18.00;52.20;;;;;;5058123;28;20170;-67
2022/02/06 08:25:44;;;;;;;1.63;0.80;;;18.10;52.20;;;;;;5071471;28;20165;-68
2022/02/06 08:28:10;;;;;;;2.10;0.82;;;18.10;52.20;;;;;;5072482;28;20206;-68
2022/02/06 08:30:37;;;;;;;2.63;0.90;;;18.10;52.30;;;;;;5061046;28;20174;-68
2022/02/06 08:33:05;;;;;;;1.42;0.80;;;18.10;52.30;;;;;;5061895;28;20204;-69
2022/02/06 08:35:31;;;;;;;1.17;0.90;;;18.10;52.40;;;;;;5072230;28;20277;-69
2022/02/06 08:37:56;;;;;;;1.88;0.88;;;18.10;52.50;;;;;;5070987;28;20285;-69
2022/02/06 08:40:22;;;;;;;1.38;0.90;;;18.10;52.50;;;;;;5052586;28;20672;-68
2022/02/06 08:42:47;;;;;;;3.88;1.00;;;18.10;52.70;;;;;;5051884;28;20179;-68
2022/02/06 08:45:14;;;;;;;2.70;1.00;;;18.10;52.70;;;;;;5052216;28;20626;-68
2022/02/06 08:47:42;;;;;;;2.10;1.20;;;18.20;52.70;;;;;;5052776;28;20182;-68
2022/02/06 08:50:08;;;;;;;1.95;0.90;;;18.20;52.70;;;;;;5051583;28;20595;-68
2022/02/06 08:52:33;;;;;;;1.45;0.80;;;18.20;52.80;;;;;;5052576;28;20187;-69
2022/02/06 08:55:00;;;;;;;1.77;1.10;;;18.20;52.90;;;;;;5053331;28;20752;-68
2022/02/06 08:57:26;;;;;;;1.33;0.98;;;18.20;52.90;;;;;;5071829;28;20222;-68
2022/02/06 08:59:52;;;;;;;0.82;0.80;;;18.20;52.90;;;;;;5072703;28;20174;-68
2022/02/06 09:02:18;;;;;;;1.38;0.90;;;18.20;53.00;;;;;;5072655;28;20167;-69
2022/02/06 09:04:44;;;;;;;2.38;0.85;;;18.30;53.10;;;;;;5071587;28;20668;-68
2022/02/06 09:07:10;;;;;;;1.52;0.77;;;18.40;53.00;;;;;;5072209;28;20540;-66
2022/02/06 09:09:36;;;;;;;3.05;0.98;;;18.40;52.80;;;;;;5072469;28;20194;-66
2022/02/06 09:12:03;;;;;;;2.55;1.20;;;18.40;53.00;;;;;;5070846;28;20171;-66
2022/02/06 09:14:29;;;;;;;3.17;1.02;;;18.30;53.00;;;;;;5054162;28;20187;-65
2022/02/06 09:16:55;;;;;;;3.53;1.08;;;18.40;53.20;;;;;;5052076;28;20612;-72
2022/02/06 09:19:20;;;;;;;1.33;1.00;;;18.40;53.00;;;;;;5051774;28;20194;-67
2022/02/06 09:21:46;;;;;;;1.42;1.08;;;18.40;53.10;;;;;;5052235;28;20182;-66
2022/02/06 09:24:11;;;;;;;1.85;0.77;;;18.50;53.20;;;;;;5051837;28;20642;-66
2022/02/06 09:26:37;;;;;;;1.60;1.13;;;18.60;53.00;;;;;;5051203;28;20179;-67
2022/02/06 09:29:03;;;;;;;4.15;0.93;;;18.60;53.00;;;;;;5051746;28;20183;-67
2022/02/06 09:31:29;;;;;;;1.15;0.93;;;18.70;53.00;;;;;;5056102;28;20175;-68
2022/02/06 09:36:20;;;;;;;1.50;0.88;;;18.80;52.80;;;;;;5055883;28;20163;-68
2022/02/06 09:38:45;;;;;;;0.68;0.65;;;18.80;52.70;;;;;;5055291;28;20709;-68
2022/02/06 09:41:11;;;;;;;1.02;0.68;;;18.80;52.80;;;;;;5055511;28;20622;-67
2022/02/06 09:43:39;;;;;;;1.35;0.70;;;18.90;52.70;;;;;;5055681;28;20190;-67
2022/02/06 09:46:05;;;;;;;2.72;0.80;;;18.90;52.70;;;;;;5037136;28;20254;-66
2022/02/06 09:48:31;;;;;;;2.70;1.02;;;19.00;52.70;;;;;;5037999;28;20228;-66
2022/02/06 09:50:57;;;;;;;1.58;0.70;;;18.90;52.60;;;;;;5055600;28;20179;-67
2022/02/06 09:53:25;;;;;;;2.55;0.70;;;19.10;52.60;;;;;;5054691;28;20563;-68
2022/02/06 09:55:50;;;;;;;1.30;0.73;;;19.00;52.70;;;;;;5037132;28;20258;-68
2022/02/06 09:58:55;;;;;;;3.30;0.70;;;19.00;52.80;;;;;;5021021;28;20217;-67
2022/02/06 10:01:08;;;;;;;3.08;1.10;;;19.00;52.90;;;;;;5058232;28;20183;-68
2022/02/06 10:03:47;;;;;;;1.23;0.70;;;19.00;52.90;;;;;;5063939;28;20183;-68
2022/02/06 10:06:21;;;;;;;4.13;1.10;;;19.00;52.90;;;;;;5065258;28;20262;-68
2022/02/06 10:08:46;;;;;;;0.70;0.60;;;19.10;53.00;;;;;;5063660;28;20670;-68
2022/02/06 10:11:16;;;;;;;0.90;0.60;;;19.10;52.90;;;;;;5046070;28;20232;-68
2022/02/06 10:13:42;;;;;;;1.08;0.73;;;19.10;52.90;;;;;;5063883;28;20357;-68
2022/02/06 10:16:13;;;;;;;0.80;0.70;;;19.10;52.90;;;;;;5063449;28;20258;-68
2022/02/06 10:18:39;;;;;;;0.63;0.60;;;19.00;52.90;;;;;;5065445;28;20281;-69
2022/02/06 10:21:06;;;;;;;2.05;0.60;;;19.00;52.90;;;;;;5059396;28;20640;-69
2022/02/06 10:23:40;;;;;;;0.90;0.50;;;19.00;53.00;;;;;;5054772;28;20276;-66
2022/02/06 10:26:25;;;;;;;0.60;0.50;;;18.90;53.10;;;;;;5054664;28;20578;-66
2022/02/06 10:29:21;;;;;;;1.35;0.82;;;18.80;53.10;;;;;;5054284;28;20541;-69
2022/02/06 10:31:50;;;;;;;1.70;0.65;;;18.80;53.40;;;;;;5055020;28;20202;-68
2022/02/06 10:34:23;;;;;;;1.13;0.60;;;18.70;53.40;;;;;;5054740;28;20171;-69
2022/02/06 10:36:48;;;;;;;1.60;0.60;;;18.70;53.50;;;;;;5053908;28;20179;-68
2022/02/06 10:39:16;;;;;;;0.82;0.68;;;18.70;53.60;;;;;;5054310;28;20191;-68
2022/02/06 10:41:45;;;;;;;1.60;0.65;;;18.70;53.60;;;;;;5054309;28;20203;-67
2022/02/06 10:44:10;;;;;;;1.58;0.90;;;18.70;53.50;;;;;;5053824;28;20175;-68
2022/02/06 10:46:44;;;;;;;1.70;0.70;;;18.70;53.60;;;;;;5054708;28;20221;-68
2022/02/06 10:49:14;;;;;;;1.45;0.88;;;18.70;53.50;;;;;;5053665;28;20522;-68
2022/02/06 10:51:48;;;;;;;2.15;0.90;;;18.70;53.50;;;;;;5054515;28;20595;-68
2022/02/06 10:54:16;;;;;;;1.42;0.77;;;18.70;53.40;;;;;;5054039;28;20230;-69
2022/02/06 10:57:10;;;;;;;1.17;0.60;;;18.70;53.40;;;;;;5053533;28;20585;-68
2022/02/06 10:59:36;;;;;;;2.47;0.90;;;18.70;53.50;;;;;;5054437;28;20179;-67
2022/02/06 11:02:06;;;;;;;1.60;0.60;;;18.80;53.50;;;;;;5054078;28;20181;-68
2022/02/06 11:04:33;;;;;;;1.35;0.60;;;18.80;53.50;;;;;;5053525;28;20546;-69
2022/02/06 11:07:19;;;;;;;2.58;0.50;;;18.70;53.40;;;;;;5036302;28;20171;-71
2022/02/06 11:09:44;;;;;;;2.75;1.08;;;18.80;53.40;;;;;;5054477;28;20175;-71
2022/02/06 11:12:21;;;;;;;1.85;0.80;;;18.80;53.40;;;;;;5053300;28;20182;-70
2022/02/06 11:14:48;;;;;;;0.85;0.50;;;18.70;53.40;;;;;;5054237;28;20183;-71
2022/02/06 11:17:24;;;;;;;1.95;0.60;;;18.70;53.60;;;;;;5071705;28;20676;-71
2022/02/06 11:20:08;;;;;;;0.88;0.50;;;18.70;53.60;;;;;;5074402;28;20174;-64
2022/02/06 11:22:34;;;;;;;3.35;0.65;;;18.70;53.60;;;;;;5074165;28;20259;-66
2022/02/06 11:25:01;;;;;;;0.82;0.55;;;18.70;53.70;;;;;;5072866;28;20690;-68
2022/02/06 11:27:27;;;;;;;1.33;0.70;;;18.70;53.80;;;;;;5073707;28;20220;-68
2022/02/06 11:29:53;;;;;;;1.20;0.63;;;18.70;53.70;;;;;;5073617;28;20174;-71
2022/02/06 11:32:19;;;;;;;3.47;0.88;;;18.70;53.60;;;;;;5073116;28;20167;-68
2022/02/06 11:34:45;;;;;;;2.92;0.90;;;18.70;53.70;;;;;;5073908;28;20504;-68
2022/02/06 11:46:00;;;;;;;0.68;0.50;;;18.60;54.00;;;;;;5057299;28;20564;-69
2022/02/06 11:48:27;;;;;;;1.02;0.65;;;18.60;54.10;;;;;;5039180;28;20206;-67
2022/02/06 11:50:54;;;;;;;2.22;0.63;;;18.60;54.20;;;;;;5055387;28;20182;-68
2022/02/06 11:53:26;;;;;;;2.25;0.63;;;18.60;54.20;;;;;;5061919;28;20223;-68
2022/02/06 11:55:53;;;;;;;1.13;0.55;;;18.60;54.10;;;;;;5056953;28;20171;-67
2022/02/06 11:58:24;;;;;;;2.65;0.60;;;18.60;54.10;;;;;;5053115;28;20202;-67
2022/02/06 12:01:07;;;;;;;3.40;0.80;;;18.60;54.10;;;;;;5056634;28;20533;-67
2022/02/06 12:03:55;;;;;;;1.05;0.57;;;18.60;54.00;;;;;;5073201;28;20171;-68
2022/02/06 12:06:36;;;;;;;1.65;0.50;;;18.70;54.00;;;;;;5073029;28;20545;-67
2022/02/06 12:09:02;;;;;;;0.63;0.50;;;18.60;53.90;;;;;;5071037;28;20228;-67
2022/02/06 12:11:33;;;;;;;1.05;0.50;;;18.60;54.00;;;;;;5053116;28;20183;-66
2022/02/06 12:14:20;;;;;;;0.65;0.60;;;18.60;54.00;;;;;;5042588;28;20189;-67
2022/02/06 12:17:18;;;;;;;0.95;0.60;;;18.50;53.90;;;;;;5073072;28;20170;-66
2022/02/06 12:20:06;;;;;;;2.22;0.57;;;18.50;54.00;;;;;;5066905;28;20197;-67
2022/02/06 12:22:38;;;;;;;0.82;0.43;;;18.50;54.20;;;;;;5068721;28;20686;-66
2022/02/06 12:25:22;;;;;;;1.38;0.90;;;18.50;54.20;;;;;;5055252;28;20190;-67
2022/02/06 12:27:52;;;;;;;1.85;0.40;;;18.50;54.10;;;;;;5055738;28;20259;-67
2022/02/06 12:30:26;;;;;;;0.40;0.40;;;18.50;54.10;;;;;;5053008;28;20190;-68
2022/02/06 12:32:52;;;;;;;1.08;0.50;;;18.50;54.00;;;;;;5052734;28;20567;-68
2022/02/06 12:37:59;;;;;;;0.95;0.57;;;18.60;53.90;;;;;;5052440;28;20209;-66
2022/02/06 12:40:26;;;;;;;2.20;0.65;;;18.60;54.00;;;;;;5052435;28;20186;-67
2022/02/06 12:42:58;;;;;;;0.70;0.52;;;18.50;54.00;;;;;;5051992;28;20205;-68
2022/02/06 12:45:24;;;;;;;0.43;0.40;;;18.50;54.10;;;;;;5052668;28;20232;-67
2022/02/06 12:47:53;;;;;;;0.50;0.50;;;18.50;54.10;;;;;;5052621;28;20267;-67
2022/02/06 12:50:30;;;;;;;1.67;0.50;;;18.50;54.20;;;;;;5051803;28;20183;-67
2022/02/06 12:52:55;;;;;;;1.80;0.52;;;18.50;54.30;;;;;;5055350;28;20337;-68
2022/02/06 12:55:22;;;;;;;0.93;0.30;;;18.50;54.30;;;;;;5072712;28;20755;-67
2022/02/06 12:57:51;;;;;;;1.48;0.63;;;18.50;54.30;;;;;;5062214;28;20702;-68
2022/02/06 13:00:41;;;;;;;1.83;0.40;;;18.50;54.30;;;;;;5063121;28;20201;-69
2022/02/06 13:03:33;;;;;;;0.60;0.60;;;18.50;54.30;;;;;;5061735;28;20175;-70
2022/02/06 13:06:05;;;;;;;0.68;0.40;;;18.50;54.30;;;;;;5065029;28;20165;-70
2022/02/06 13:08:31;;;;;;;1.77;0.60;;;18.60;54.30;;;;;;5064244;28;20204;-69
2022/02/06 13:11:10;;;;;;;1.45;0.55;;;18.50;54.30;;;;;;5063752;28;20183;-69
2022/02/06 13:13:47;;;;;;;5.63;0.75;;;18.50;54.30;;;;;;5064925;28;20167;-68
2022/02/06 13:19:14;;;;;;;0.70;0.30;;;18.40;54.40;;;;;;5057771;28;20301;-71
2022/02/06 13:22:01;;;;;;;1.05;0.55;;;18.40;54.50;;;;;;5056009;28;20179;-70
2022/02/06 13:25:00;;;;;;;1.80;0.40;;;18.50;54.60;;;;;;5055439;28;20179;-68
2022/02/06 13:28:11;;;;;;;2.13;0.93;;;18.50;54.60;;;;;;5068105;28;20175;-67
2022/02/06 13:30:30;;;;;;;0.73;0.50;;;18.50;54.60;;;;;;5052617;28;20191;-68
2022/02/06 13:33:05;;;;;;;1.15;0.65;;;18.50;54.50;;;;;;5039336;28;20179;-71
2022/02/06 13:38:08;;;;;;;0.90;0.50;;;18.50;54.40;;;;;;5055186;28;20210;-68
2022/02/06 13:40:44;;;;;;;3.58;0.70;;;18.40;54.50;;;;;;5055753;28;20652;-68
2022/02/06 13:43:16;;;;;;;2.35;0.40;;;18.40;54.50;;;;;;5055746;28;20203;-67
2022/02/06 13:45:42;;;;;;;1.50;0.60;;;18.40;54.70;;;;;;5054973;28;20614;-67
2022/02/06 13:48:08;;;;;;;1.58;0.70;;;18.40;54.90;;;;;;5055402;28;20179;-67
2022/02/06 13:50:39;;;;;;;4.18;0.70;;;18.40;54.90;;;;;;5055772;28;20182;-67
2022/02/06 13:53:14;;;;;;;1.00;0.55;;;18.40;54.90;;;;;;5054521;28;20222;-68
2022/02/06 13:55:50;;;;;;;3.42;0.50;;;18.40;54.90;;;;;;5055332;28;20255;-68
2022/02/06 13:58:18;;;;;;;2.20;0.55;;;18.40;54.80;;;;;;5055250;28;20261;-68
2022/02/06 14:01:07;;;;;;;0.85;0.65;;;18.40;54.80;;;;;;5054695;28;20171;-69
2022/02/06 14:03:46;;;;;;;2.05;0.60;;;18.40;54.90;;;;;;5045054;28;20262;-68
2022/02/06 14:06:14;;;;;;;2.47;0.45;;;18.40;54.80;;;;;;5054584;28;20175;-69
2022/02/06 14:09:26;;;;;;;0.75;0.50;;;18.40;54.80;;;;;;5055610;28;20179;-65
2022/02/06 14:12:05;;;;;;;1.42;0.60;;;18.30;54.90;;;;;;4974326;28;20193;-67
2022/02/06 14:14:32;;;;;;;1.35;0.55;;;18.30;55.60;;;;;;5051126;28;20267;-69
2022/02/06 14:16:58;;;;;;;1.10;0.60;;;18.30;54.90;;;;;;5054394;28;20175;-68
2022/02/06 14:19:45;;;;;;;2.40;0.57;;;18.30;55.00;;;;;;5055282;28;20225;-68
2022/02/06 14:22:31;;;;;;;3.13;0.70;;;18.30;55.00;;;;;;5054119;28;20194;-68
2022/02/06 14:25:05;;;;;;;5.32;0.93;;;18.30;55.00;;;;;;5054331;28;20202;-69
2022/02/06 14:27:34;;;;;;;2.72;0.80;;;18.40;54.90;;;;;;5061605;28;20178;-68
2022/02/06 14:30:29;;;;;;;1.55;0.45;;;18.40;54.90;;;;;;5074625;28;20212;-68
2022/02/06 14:33:12;;;;;;;1.30;0.50;;;18.30;54.90;;;;;;5056925;28;20202;-68
2022/02/06 14:35:38;;;;;;;0.57;0.50;;;18.30;55.00;;;;;;5074208;28;20174;-68
2022/02/06 14:38:05;;;;;;;1.55;0.60;;;18.30;54.90;;;;;;5074657;28;20210;-68
2022/02/06 14:43:12;;;;;;;2.15;0.35;;;18.30;54.90;;;;;;5073684;28;20178;-67
2022/02/06 14:45:47;;;;;;;2.50;0.60;;;18.30;54.90;;;;;;5074772;28;20177;-66
2022/02/06 14:48:13;;;;;;;0.95;0.50;;;18.30;55.00;;;;;;5074190;28;20193;-67
2022/02/06 14:50:38;;;;;;;1.10;1.00;;;18.30;55.00;;;;;;5074383;28;20513;-67
2022/02/06 14:53:04;;;;;;;1.45;0.55;;;18.30;54.90;;;;;;5074213;28;20229;-67
2022/02/06 14:55:31;;;;;;;3.15;0.70;;;18.30;54.90;;;;;;5073777;28;20182;-66
2022/02/06 14:57:56;;;;;;;3.15;0.75;;;18.30;54.90;;;;;;5073931;28;20681;-66
2022/02/06 15:00:22;;;;;;;1.42;0.65;;;18.30;54.90;;;;;;5071751;28;20175;-67
2022/02/06 15:02:47;;;;;;;1.52;0.57;;;18.30;54.80;;;;;;5053539;28;20195;-68
2022/02/06 15:05:12;;;;;;;2.15;0.70;;;18.30;54.80;;;;;;5053973;28;20187;-67
2022/02/06 15:07:38;;;;;;;1.77;0.40;;;18.40;54.80;;;;;;5054214;28;20556;-67
2022/02/06 15:10:04;;;;;;;1.38;0.50;;;18.40;54.90;;;;;;5053152;28;20646;-66
2022/02/06 15:12:29;;;;;;;1.40;0.75;;;18.40;54.90;;;;;;5053998;28;20284;-65